createdAt,value
2022-11-15T00:01:21.090Z,21.73
2022-11-15T00:03:51.517Z,22.33
2022-11-15T00:06:21.190Z,21.00
2022-11-15T00:08:50.905Z,21.97
2022-11-15T00:11:19.192Z,19.90
2022-11-15T00:13:47.849Z,18.77
2022-11-15T00:16:16.103Z,19.53
2022-11-15T00:18:50.850Z,19.10
2022-11-15T00:21:20.941Z,20.07
2022-11-15T00:23:49.232Z,19.83
2022-11-15T00:26:17.625Z,20.00
2022-11-15T00:28:49.222Z,17.27
2022-11-15T00:31:17.452Z,18.87
2022-11-15T00:36:31.353Z,18.63
2022-11-15T00:38:59.695Z,16.97
2022-11-15T00:41:28.184Z,17.10
2022-11-15T00:43:58.795Z,18.37
2022-11-15T00:46:27.402Z,16.93
2022-11-15T00:48:55.891Z,17.20
2022-11-15T00:51:24.864Z,17.40
2022-11-15T00:53:54.666Z,16.67
2022-11-15T00:56:23.043Z,20.03
2022-11-15T00:58:52.931Z,17.60
2022-11-15T01:01:21.221Z,17.63
2022-11-15T01:03:49.528Z,18.57
2022-11-15T01:06:19.404Z,19.10
2022-11-15T01:08:48.017Z,19.97
2022-11-15T01:11:20.488Z,19.47
2022-11-15T01:13:48.774Z,17.97
2022-11-15T01:16:19.639Z,17.90
2022-11-15T01:18:48.088Z,17.97
2022-11-15T01:21:17.397Z,19.50
2022-11-15T01:23:45.912Z,16.90
2022-11-15T01:26:16.715Z,18.90
2022-11-15T01:28:48.811Z,20.53
2022-11-15T01:31:29.276Z,20.20
2022-11-15T01:33:57.531Z,18.50
2022-11-15T01:36:25.926Z,19.37
2022-11-15T01:38:57.273Z,19.20
2022-11-15T01:41:32.023Z,21.27
2022-11-15T01:44:33.591Z,20.93
2022-11-15T01:47:05.644Z,19.37
2022-11-15T01:49:41.132Z,20.77
2022-11-15T01:52:16.331Z,20.43
2022-11-15T01:54:47.870Z,20.63
2022-11-15T01:57:16.341Z,20.67
2022-11-15T01:59:49.624Z,20.73
2022-11-15T02:02:25.436Z,22.33
2022-11-15T02:04:53.975Z,22.97
2022-11-15T02:07:25.202Z,24.47
2022-11-15T02:09:53.455Z,23.43
2022-11-15T02:12:25.998Z,22.50
2022-11-15T02:14:54.995Z,24.17
2022-11-15T02:17:38.350Z,25.00
2022-11-15T02:20:49.096Z,23.20
2022-11-15T02:23:42.756Z,22.83
2022-11-15T02:26:50.241Z,23.97
2022-11-15T02:29:21.953Z,22.73
2022-11-15T02:31:53.858Z,22.93
2022-11-15T02:34:25.444Z,22.60
2022-11-15T02:37:00.050Z,22.97
2022-11-15T02:39:33.224Z,21.73
2022-11-15T02:42:04.288Z,23.73
2022-11-15T02:44:33.535Z,21.90
2022-11-15T02:47:17.020Z,25.00
2022-11-15T02:49:51.687Z,22.73
2022-11-15T02:52:24.410Z,23.53
2022-11-15T02:54:56.587Z,22.93
2022-11-15T02:57:34.553Z,24.07
2022-11-15T03:00:10.703Z,24.63
2022-11-15T03:03:08.473Z,25.47
2022-11-15T03:05:38.191Z,24.13
2022-11-15T03:08:09.008Z,26.00
2022-11-15T03:10:44.719Z,25.50
2022-11-15T03:13:18.822Z,24.33
2022-11-15T03:15:48.890Z,23.43
2022-11-15T03:18:23.951Z,24.60
2022-11-15T03:20:58.623Z,24.10
2022-11-15T03:23:27.188Z,25.60
2022-11-15T03:25:56.412Z,24.30
2022-11-15T03:28:26.030Z,24.50
2022-11-15T03:30:57.590Z,24.63
2022-11-15T03:33:27.570Z,24.60
2022-11-15T03:35:55.910Z,26.07
2022-11-15T03:38:28.075Z,24.53
2022-11-15T03:41:02.574Z,26.07
2022-11-15T03:43:33.547Z,24.07
2022-11-15T03:46:03.379Z,23.97
2022-11-15T03:48:35.740Z,25.03
2022-11-15T03:51:05.425Z,24.47
2022-11-15T03:53:34.082Z,23.87
2022-11-15T03:56:02.788Z,23.23
2022-11-15T03:58:31.510Z,23.17
2022-11-15T04:01:00.568Z,21.63
2022-11-15T04:03:28.975Z,24.30
2022-11-15T04:06:02.877Z,23.03
2022-11-15T04:08:33.078Z,23.47
2022-11-15T04:11:02.614Z,21.80
2022-11-15T04:13:31.408Z,24.27
2022-11-15T04:15:59.828Z,23.97
2022-11-15T04:18:28.207Z,21.40
2022-11-15T04:21:21.908Z,20.90
2022-11-15T04:24:06.777Z,22.27
2022-11-15T04:26:35.147Z,21.57
2022-11-15T04:29:21.109Z,19.83
2022-11-15T04:31:52.807Z,22.00
2022-11-15T04:34:21.325Z,20.77
2022-11-15T04:37:08.535Z,20.10
2022-11-15T04:39:36.845Z,19.00
2022-11-15T04:42:10.453Z,21.17
2022-11-15T04:44:38.830Z,21.20
2022-11-15T04:47:07.360Z,20.17
2022-11-15T04:49:35.636Z,18.97
2022-11-15T04:52:19.156Z,19.07
2022-11-15T04:54:57.048Z,21.17
2022-11-15T04:57:29.954Z,19.37
2022-11-15T04:59:58.235Z,18.43
2022-11-15T05:02:50.747Z,17.83
2022-11-15T05:05:18.066Z,19.83
2022-11-15T05:07:49.212Z,19.30
2022-11-15T05:10:17.597Z,20.37
2022-11-15T05:12:52.319Z,19.50
2022-11-15T05:15:26.379Z,18.13
2022-11-15T05:18:04.046Z,19.77
2022-11-15T05:20:35.777Z,20.67
2022-11-15T05:23:09.077Z,19.67
2022-11-15T05:25:39.378Z,18.93
2022-11-15T05:28:07.674Z,16.90
2022-11-15T05:30:35.871Z,18.73
2022-11-15T05:33:05.204Z,18.73
2022-11-15T05:35:35.985Z,17.03
2022-11-15T05:38:04.214Z,18.20
2022-11-15T05:40:33.854Z,17.37
2022-11-15T05:43:02.354Z,19.90
2022-11-15T05:45:31.737Z,18.73
2022-11-15T05:48:08.340Z,18.77
2022-11-15T05:50:50.204Z,19.27
2022-11-15T05:53:22.110Z,19.60
2022-11-15T05:55:52.677Z,19.57
2022-11-15T06:01:31.483Z,18.87
2022-11-15T06:04:05.766Z,17.40
2022-11-15T06:06:49.326Z,18.30
2022-11-15T06:09:21.831Z,16.47
2022-11-15T06:12:01.815Z,19.20
2022-11-15T06:14:34.161Z,19.23
2022-11-15T06:17:11.005Z,17.63
2022-11-15T06:20:03.021Z,17.67
2022-11-15T06:22:44.162Z,17.90
2022-11-15T06:25:12.961Z,18.53
2022-11-15T06:27:42.716Z,17.37
2022-11-15T06:30:12.995Z,17.53
2022-11-15T06:32:42.526Z,16.90
2022-11-15T06:35:15.674Z,17.13
2022-11-15T06:37:44.403Z,16.57
2022-11-15T06:40:13.768Z,17.93
2022-11-15T06:42:46.130Z,16.33
2022-11-15T06:45:35.196Z,17.40
2022-11-15T06:48:03.425Z,17.63
2022-11-15T06:50:31.774Z,16.87
2022-11-15T06:53:06.789Z,17.77
2022-11-15T06:55:37.442Z,17.10
2022-11-15T06:58:17.035Z,15.73
2022-11-15T07:00:48.919Z,14.57
2022-11-15T07:03:24.611Z,15.13
2022-11-15T07:05:55.703Z,13.63
2022-11-15T07:08:24.471Z,15.20
2022-11-15T07:10:52.751Z,15.40
2022-11-15T07:13:26.997Z,14.30
2022-11-15T07:15:58.191Z,15.30
2022-11-15T07:18:31.798Z,14.53
2022-11-15T07:21:04.312Z,13.93
2022-11-15T07:23:39.162Z,13.37
2022-11-15T07:26:07.607Z,13.87
2022-11-15T07:28:37.281Z,14.53
2022-11-15T07:31:06.295Z,12.97
2022-11-15T07:33:35.034Z,14.27
2022-11-15T07:36:03.835Z,13.47
2022-11-15T07:38:39.381Z,13.37
2022-11-15T07:41:16.996Z,12.33
2022-11-15T07:43:47.651Z,19.43
2022-11-15T07:46:16.365Z,15.43
2022-11-15T07:48:50.567Z,16.17
2022-11-15T07:51:19.920Z,14.13
2022-11-15T07:53:52.282Z,13.80
2022-11-15T07:56:21.719Z,14.43
2022-11-15T07:58:53.083Z,14.67
2022-11-15T08:01:22.042Z,13.73
2022-11-15T08:04:09.985Z,14.10
2022-11-15T08:06:38.242Z,14.33
2022-11-15T08:09:07.039Z,14.63
2022-11-15T08:11:37.871Z,15.60
2022-11-15T08:14:15.211Z,15.23
2022-11-15T08:16:48.264Z,15.30
2022-11-15T08:19:24.467Z,14.40
2022-11-15T08:21:52.860Z,15.13
2022-11-15T08:24:37.494Z,14.57
2022-11-15T08:27:17.940Z,14.23
2022-11-15T08:29:59.585Z,14.77
2022-11-15T08:32:32.417Z,14.70
2022-11-15T08:35:04.694Z,14.57
2022-11-15T08:37:35.698Z,13.70
2022-11-15T08:40:05.155Z,12.83
2022-11-15T08:42:34.875Z,12.10
2022-11-15T08:45:07.184Z,11.10
2022-11-15T08:47:37.522Z,10.27
2022-11-15T08:50:09.581Z,10.23
2022-11-15T08:52:42.265Z,9.67
2022-11-15T08:55:10.948Z,9.80
2022-11-15T08:57:39.136Z,9.40
2022-11-15T09:00:11.987Z,9.03
2022-11-15T09:02:43.805Z,9.03
2022-11-15T09:05:20.482Z,8.50
2022-11-15T09:07:56.368Z,7.30
2022-11-15T09:10:29.629Z,6.70
2022-11-15T09:13:03.326Z,6.47
2022-11-15T09:15:44.973Z,6.17
2022-11-15T09:18:20.976Z,6.87
2022-11-15T09:21:06.540Z,8.43
2022-11-15T09:23:39.137Z,5.77
2022-11-15T09:26:12.402Z,6.27
2022-11-15T09:28:55.810Z,7.00
2022-11-15T09:31:35.156Z,6.03
2022-11-15T09:34:03.656Z,7.30
2022-11-15T09:36:36.444Z,6.17
2022-11-15T09:39:15.646Z,5.87
2022-11-15T09:42:07.114Z,6.30
2022-11-15T09:44:48.649Z,5.43
2022-11-15T09:47:48.883Z,6.03
2022-11-15T09:50:31.731Z,5.73
2022-11-15T09:53:09.257Z,5.70
2022-11-15T09:55:56.352Z,5.83
2022-11-15T09:58:34.626Z,5.83
2022-11-15T10:01:04.201Z,4.93
2022-11-15T10:03:40.495Z,4.80
2022-11-15T10:06:22.116Z,4.70
2022-11-15T10:09:05.659Z,4.03
2022-11-15T10:11:39.819Z,4.43
2022-11-15T10:14:18.561Z,3.93
2022-11-15T10:17:33.910Z,3.80
2022-11-15T10:20:16.097Z,4.23
2022-11-15T10:23:00.115Z,5.23
2022-11-15T10:25:47.000Z,3.97
2022-11-15T10:28:39.835Z,4.03
2022-11-15T10:31:30.570Z,3.77
2022-11-15T10:34:34.063Z,3.77
2022-11-15T10:37:18.230Z,4.17
2022-11-15T10:39:49.392Z,4.40
2022-11-15T10:42:57.664Z,3.97
2022-11-15T10:45:45.264Z,3.80
2022-11-15T10:48:35.007Z,3.37
2022-11-15T10:51:10.847Z,3.43
2022-11-15T10:53:50.571Z,3.33
2022-11-15T10:56:34.397Z,3.30
2022-11-15T10:59:24.095Z,3.30
2022-11-15T11:01:58.994Z,3.30
2022-11-15T11:04:31.407Z,3.50
2022-11-15T11:07:06.034Z,2.63
2022-11-15T11:09:44.731Z,2.87
2022-11-15T11:12:21.019Z,2.60
2022-11-15T11:16:20.741Z,2.87
2022-11-15T11:18:02.713Z,3.10
2022-11-15T11:20:44.044Z,2.40
2022-11-15T11:23:38.070Z,2.57
2022-11-15T11:26:27.095Z,3.27
2022-11-15T11:29:19.674Z,3.23
2022-11-15T11:31:59.534Z,2.37
2022-11-15T11:34:53.392Z,2.30
2022-11-15T11:37:29.861Z,2.20
2022-11-15T11:40:10.963Z,2.17
2022-11-15T11:43:10.123Z,2.13
2022-11-15T11:46:18.594Z,2.13
2022-11-15T11:48:52.417Z,2.40
2022-11-15T11:51:35.098Z,1.93
2022-11-15T11:54:41.968Z,2.53
2022-11-15T11:57:23.410Z,1.90
2022-11-15T12:00:02.078Z,2.10
2022-11-15T12:02:48.699Z,1.87
2022-11-15T12:05:38.893Z,2.23
2022-11-15T12:08:30.272Z,1.67
2022-11-15T12:11:18.892Z,1.30
2022-11-15T12:14:11.395Z,1.80
2022-11-15T12:17:05.981Z,2.13
2022-11-15T12:19:34.335Z,1.20
2022-11-15T12:22:15.122Z,1.67
2022-11-15T12:25:29.131Z,1.13
2022-11-15T12:32:25.349Z,1.37
2022-11-15T12:35:54.801Z,1.20
2022-11-15T12:46:27.156Z,1.03
2022-11-15T12:49:09.112Z,0.93
2022-11-15T12:52:19.923Z,1.20
2022-11-15T12:55:36.392Z,1.40
2022-11-15T13:02:32.523Z,1.17
2022-11-15T13:05:49.350Z,0.90
2022-11-15T13:08:54.067Z,1.23
2022-11-15T13:11:56.054Z,1.17
2022-11-15T13:19:14.528Z,0.67
2022-11-15T13:26:29.263Z,1.03
2022-11-15T13:29:13.569Z,1.00
2022-11-15T13:32:20.050Z,0.93
2022-11-15T13:35:10.094Z,1.43
2022-11-15T13:38:17.429Z,0.70
2022-11-15T13:42:23.285Z,1.23
2022-11-15T13:44:33.975Z,1.10
2022-11-15T13:47:49.397Z,1.50
2022-11-15T13:50:25.843Z,1.03
2022-11-15T13:53:02.079Z,1.00
2022-11-15T13:55:50.333Z,1.13
2022-11-15T13:58:32.451Z,1.00
2022-11-15T14:01:09.296Z,1.07
2022-11-15T14:04:04.401Z,1.07
2022-11-15T14:06:38.268Z,0.60
2022-11-15T14:10:03.371Z,1.73
2022-11-15T14:12:47.218Z,0.90
2022-11-15T14:15:45.486Z,1.03
2022-11-15T14:18:55.984Z,0.90
2022-11-15T14:21:33.673Z,0.83
2022-11-15T14:24:17.177Z,0.97
2022-11-15T14:26:51.089Z,1.47
2022-11-15T14:29:42.236Z,1.17
2022-11-15T14:32:41.204Z,1.07
2022-11-15T14:35:17.421Z,0.90
2022-11-15T14:37:53.429Z,0.77
2022-11-15T14:40:35.652Z,0.80
2022-11-15T14:43:26.520Z,0.83
2022-11-15T14:45:55.076Z,0.97
2022-11-15T14:48:27.919Z,0.93
2022-11-15T14:51:05.329Z,0.80
2022-11-15T14:53:33.765Z,1.07
2022-11-15T14:56:05.541Z,1.00
2022-11-15T14:58:39.504Z,1.13
2022-11-15T15:01:19.043Z,1.17
2022-11-15T15:04:00.787Z,0.87
2022-11-15T15:06:40.525Z,1.00
2022-11-15T15:09:10.317Z,1.47
2022-11-15T15:11:51.717Z,1.30
2022-11-15T15:14:27.219Z,0.80
2022-11-15T15:16:55.499Z,1.33
2022-11-15T15:19:31.285Z,1.13
2022-11-15T15:22:02.018Z,1.20
2022-11-15T15:24:30.310Z,1.47
2022-11-15T15:26:59.888Z,1.40
2022-11-15T15:29:43.058Z,1.63
2022-11-15T15:32:14.596Z,1.30
2022-11-15T15:35:32.256Z,1.00
2022-11-15T15:42:42.086Z,0.97
2022-11-15T15:45:14.329Z,1.27
2022-11-15T15:47:42.777Z,1.10
2022-11-15T15:50:33.413Z,1.60
2022-11-15T15:53:51.721Z,1.30
2022-11-15T15:56:25.483Z,1.53
2022-11-15T15:58:57.273Z,1.50
2022-11-15T16:01:25.883Z,1.20
2022-11-15T16:03:54.022Z,1.20
2022-11-15T16:06:34.929Z,1.07
2022-11-15T16:09:18.466Z,0.93
2022-11-15T16:11:52.642Z,0.80
2022-11-15T16:14:22.583Z,0.73
2022-11-15T16:16:52.019Z,0.87
2022-11-15T16:19:20.209Z,0.70
2022-11-15T16:21:48.521Z,0.60
2022-11-15T16:24:16.819Z,0.90
2022-11-15T16:26:44.968Z,1.10
2022-11-15T16:29:13.241Z,1.60
2022-11-15T16:31:42.972Z,1.43
2022-11-15T16:34:11.257Z,1.20
2022-11-15T16:36:39.434Z,1.10
2022-11-15T16:39:19.510Z,1.00
2022-11-15T16:41:48.195Z,1.10
2022-11-15T16:44:16.429Z,1.30
2022-11-15T16:47:01.174Z,1.60
2022-11-15T16:49:32.810Z,1.10
2022-11-15T16:52:02.717Z,1.50
2022-11-15T16:54:31.022Z,1.30
2022-11-15T16:57:02.456Z,0.93
2022-11-15T16:59:37.067Z,1.60
2022-11-15T17:02:11.817Z,1.70
2022-11-15T17:04:46.294Z,1.50
2022-11-15T17:07:16.232Z,1.43
2022-11-15T17:09:44.726Z,2.10
2022-11-15T17:12:12.907Z,1.50
2022-11-15T17:14:41.277Z,1.27
2022-11-15T17:17:12.015Z,1.47
2022-11-15T17:19:40.301Z,1.30
2022-11-15T17:22:09.586Z,1.90
2022-11-15T17:24:37.856Z,1.57
2022-11-15T17:27:06.101Z,2.13
2022-11-15T17:29:39.441Z,2.10
2022-11-15T17:32:08.064Z,1.43
2022-11-15T17:34:37.766Z,1.90
2022-11-15T17:37:06.217Z,2.03
2022-11-15T17:39:41.905Z,2.00
2022-11-15T17:42:10.390Z,1.90
2022-11-15T17:44:38.688Z,2.60
2022-11-15T17:47:07.046Z,3.33
2022-11-15T17:49:39.957Z,2.10
2022-11-15T17:52:09.723Z,1.80
2022-11-15T17:54:37.945Z,2.60
2022-11-15T17:57:06.170Z,2.50
2022-11-15T17:59:34.363Z,2.03
2022-11-15T18:02:04.362Z,2.07
2022-11-15T18:04:32.629Z,1.97
2022-11-15T18:07:01.078Z,1.80
2022-11-15T18:09:34.177Z,2.50
2022-11-15T18:12:05.605Z,2.13
2022-11-15T18:14:33.792Z,2.23
2022-11-15T18:17:02.118Z,2.40
2022-11-15T18:19:32.712Z,2.53
2022-11-15T18:22:01.876Z,2.67
2022-11-15T18:24:33.541Z,2.70
2022-11-15T18:27:02.478Z,2.70
2022-11-15T18:29:30.934Z,2.43
2022-11-15T18:32:00.037Z,2.53
2022-11-15T18:37:56.057Z,3.13
2022-11-15T18:40:25.889Z,3.20
2022-11-15T18:42:57.259Z,2.67
2022-11-15T18:45:25.754Z,2.53
2022-11-15T18:47:53.914Z,2.67
2022-11-15T18:50:25.502Z,3.00
2022-11-15T18:53:01.194Z,3.07
2022-11-15T18:55:30.832Z,2.73
2022-11-15T18:57:59.123Z,3.33
2022-11-15T19:00:27.519Z,3.43
2022-11-15T19:02:55.932Z,3.00
2022-11-15T19:05:31.617Z,3.50
2022-11-15T19:07:59.824Z,3.33
2022-11-15T19:10:28.300Z,3.50
2022-11-15T19:13:01.044Z,3.60
2022-11-15T19:15:29.190Z,4.30
2022-11-15T19:17:57.394Z,4.33
2022-11-15T19:20:29.650Z,4.10
2022-11-15T19:22:59.072Z,4.23
2022-11-15T19:25:28.918Z,4.47
2022-11-15T19:27:57.199Z,4.87
2022-11-15T19:30:29.387Z,4.50
2022-11-15T19:32:58.288Z,4.30
2022-11-15T19:35:27.192Z,5.10
2022-11-15T19:37:55.380Z,4.63
2022-11-15T19:40:23.660Z,5.70
2022-11-15T19:42:52.117Z,4.87
2022-11-15T19:45:20.275Z,5.57
2022-11-15T19:47:51.277Z,5.53
2022-11-15T19:50:19.614Z,4.80
2022-11-15T19:52:54.213Z,5.97
2022-11-15T19:55:22.393Z,5.47
2022-11-15T19:57:50.520Z,5.50
2022-11-15T20:00:20.070Z,5.30
2022-11-15T20:02:57.547Z,6.13
2022-11-15T20:05:26.307Z,6.57
2022-11-15T20:07:54.604Z,6.07
2022-11-15T20:10:22.980Z,5.57
2022-11-15T20:12:52.604Z,8.10
2022-11-15T20:15:21.069Z,5.57
2022-11-15T20:17:50.694Z,5.57
2022-11-15T20:20:18.915Z,5.70
2022-11-15T20:22:47.569Z,6.63
2022-11-15T20:25:18.841Z,6.37
2022-11-15T20:27:47.026Z,6.40
2022-11-15T20:30:15.509Z,6.37
2022-11-15T20:32:43.762Z,5.97
2022-11-15T20:35:18.243Z,6.90
2022-11-15T20:37:52.299Z,6.53
2022-11-15T20:40:20.528Z,7.03
2022-11-15T20:42:50.474Z,7.73
2022-11-15T20:45:18.764Z,7.47
2022-11-15T20:47:50.845Z,6.63
2022-11-15T20:50:40.965Z,6.53
2022-11-15T20:53:12.374Z,6.37
2022-11-15T20:55:41.684Z,6.57
2022-11-15T20:58:10.676Z,6.87
2022-11-15T21:00:41.769Z,6.73
2022-11-15T21:03:11.801Z,7.70
2022-11-15T21:05:42.119Z,6.60
2022-11-15T21:08:11.797Z,6.10
2022-11-15T21:10:57.452Z,7.17
2022-11-15T21:13:31.243Z,6.73
2022-11-15T21:15:59.424Z,7.47
2022-11-15T21:18:27.614Z,6.80
2022-11-15T21:21:05.089Z,7.13
2022-11-15T21:23:38.244Z,6.73
2022-11-15T21:26:06.689Z,7.17
2022-11-15T21:28:35.269Z,6.63
2022-11-15T21:31:03.984Z,6.87
2022-11-15T21:33:32.152Z,6.57
2022-11-15T21:36:01.817Z,6.73
2022-11-15T21:38:30.494Z,6.50
2022-11-15T21:40:59.291Z,7.60
2022-11-15T21:43:27.555Z,6.53
2022-11-15T21:46:00.357Z,6.27
2022-11-15T21:48:29.167Z,8.20
2022-11-15T21:50:58.037Z,6.90
2022-11-15T21:53:27.743Z,7.17
2022-11-15T21:56:02.196Z,7.27
2022-11-15T21:58:31.383Z,6.47
2022-11-15T22:01:18.145Z,6.97
2022-11-15T22:03:46.402Z,7.30
2022-11-15T22:06:18.120Z,7.23
2022-11-15T22:08:48.482Z,7.80
2022-11-15T22:11:17.258Z,7.73
2022-11-15T22:13:45.618Z,8.87
2022-11-15T22:16:15.529Z,7.67
2022-11-15T22:18:43.836Z,8.40
2022-11-15T22:21:12.901Z,8.30
2022-11-15T22:23:41.374Z,7.83
2022-11-15T22:26:17.335Z,7.80
2022-11-15T22:28:47.764Z,7.30
2022-11-15T22:31:17.034Z,8.37
2022-11-15T22:33:45.383Z,7.80
2022-11-15T22:36:14.017Z,8.10
2022-11-15T22:38:42.639Z,7.53
2022-11-15T22:41:14.045Z,8.17
2022-11-15T22:43:42.276Z,7.83
2022-11-15T22:46:10.793Z,8.07
2022-11-15T22:48:39.617Z,8.83
2022-11-15T22:51:08.552Z,8.80
2022-11-15T22:53:36.717Z,7.70
2022-11-15T22:56:06.115Z,8.53
2022-11-15T22:58:38.992Z,7.67
2022-11-15T23:01:07.272Z,8.77
2022-11-15T23:03:36.141Z,8.37
2022-11-15T23:06:05.269Z,7.93
2022-11-15T23:08:33.758Z,8.53
2022-11-15T23:11:19.662Z,8.20
2022-11-15T23:13:51.113Z,8.33
2022-11-15T23:16:26.030Z,8.50
2022-11-15T23:18:57.307Z,8.03
2022-11-15T23:21:43.876Z,9.33
2022-11-15T23:24:12.876Z,8.10
2022-11-15T23:26:41.185Z,7.73
2022-11-15T23:29:12.916Z,8.60
2022-11-15T23:32:02.097Z,8.93
2022-11-15T23:34:31.259Z,7.80
2022-11-15T23:36:59.536Z,8.67
2022-11-15T23:39:32.696Z,8.67
2022-11-15T23:42:04.569Z,8.53
2022-11-15T23:44:38.252Z,9.40
2022-11-15T23:47:06.558Z,9.40
2022-11-15T23:49:46.989Z,9.13
2022-11-15T23:52:15.796Z,9.23
2022-11-15T23:54:44.070Z,9.00
2022-11-15T23:57:13.033Z,9.07
2022-11-15T23:59:45.730Z,8.03
